Lake Dynasty — 3FZB2 — position and weather

sailwx.info

Track history (hours):
 
Tides and Currents Weather Stations Pressure Air Temp Water Temp Dewpoint Dewpoint Depression Visibility Wind Speed Wind Dir Waves Ship Positions

Lake Dynasty

Last reported at 2016-May-29 17:33 UTC. Time now 2016-May-31 06:00 UTC.
Position N 01°16' E 104°13'.

Length 182 m; draft 10.4 m.

Type: Cargo ship. MMSI: 370957000.

Date/timePositionNaut miles runAvg speedWind from/ knotsBaromVisibWave heightAir tempDewpointWater temp
2016-May-29 17:33N 01°16' E 104°13'1110.8
2016-May-29 16:33N 01°15' E 104°02'5 4.5
2016-May-29 15:32N 01°17' E 103°58'0 0.1
2016-May-29 14:33N 01°17' E 103°58'0 0.0
2016-May-29 13:24N 01°17' E 103°58'0 0.2
2016-May-29 12:34N 01°17' E 103°58'0 0.1
2016-May-29 11:31N 01°17' E 103°58'0 0.0
2016-May-29 10:31N 01°17' E 103°58'0 0.1
2016-May-29 09:30N 01°17' E 103°58'0 0.0
2016-May-29 08:30N 01°17' E 103°58'0 0.0
2016-May-29 07:25N 01°17' E 103°58'0 0.0
2016-May-29 06:33N 01°17' E 103°58'0 0.1
2016-May-29 05:25N 01°17' E 103°58'0 0.0
2016-May-29 04:30N 01°17' E 103°58'1 1.3
2016-May-29 03:33N 01°16' E 103°59'3 3.1
2016-May-29 02:33N 01°14' E 103°58'2 2.4
2016-May-29 01:33N 01°13' E 103°55'5 4.5
2016-May-29 00:33N 01°11' E 103°51'7 6.5
2016-May-28 23:33N 01°08' E 103°46'5 5.4
2016-May-28 22:33N 01°04' E 103°42'5 5.4
2016-May-28 21:33N 01°04' E 103°36'10 9.9
2016-May-28 20:29N 01°09' E 103°27'7412.5
2016-May-28 14:33N 01°48' E 102°24'5212.4
2016-May-28 10:21N 02°20' E 101°43'911.8
2016-May-28 09:33N 02°26' E 101°36'  
Track history (hours):
 
Tides and Currents Weather Stations Pressure Air Temp Water Temp Dewpoint Dewpoint Depression Visibility Wind Speed Wind Dir Waves Ship Positions

Lake Dynasty

Last reported at 2016-May-29 17:33 UTC. Time now 2016-May-31 06:00 UTC.
Position N 01°16' E 104°13'.

Length 182 m; draft 10.4 m.

Type: Cargo ship. MMSI: 370957000.

Date/timePositionNaut miles runAvg speedWind from/ knotsBaromVisibWave heightAir tempDewpointWater temp
2016-May-29 17:33N 01°16' E 104°13'1110.8
2016-May-29 16:33N 01°15' E 104°02'5 4.5
2016-May-29 15:32N 01°17' E 103°58'0 0.1
2016-May-29 14:33N 01°17' E 103°58'0 0.0
2016-May-29 13:24N 01°17' E 103°58'0 0.2
2016-May-29 12:34N 01°17' E 103°58'0 0.1
2016-May-29 11:31N 01°17' E 103°58'0 0.0
2016-May-29 10:31N 01°17' E 103°58'0 0.1
2016-May-29 09:30N 01°17' E 103°58'0 0.0
2016-May-29 08:30N 01°17' E 103°58'0 0.0
2016-May-29 07:25N 01°17' E 103°58'0 0.0
2016-May-29 06:33N 01°17' E 103°58'0 0.1
2016-May-29 05:25N 01°17' E 103°58'0 0.0
2016-May-29 04:30N 01°17' E 103°58'1 1.3
2016-May-29 03:33N 01°16' E 103°59'3 3.1
2016-May-29 02:33N 01°14' E 103°58'2 2.4
2016-May-29 01:33N 01°13' E 103°55'5 4.5
2016-May-29 00:33N 01°11' E 103°51'7 6.5
2016-May-28 23:33N 01°08' E 103°46'5 5.4
2016-May-28 22:33N 01°04' E 103°42'5 5.4
2016-May-28 21:33N 01°04' E 103°36'10 9.9
2016-May-28 20:29N 01°09' E 103°27'7412.5
2016-May-28 14:33N 01°48' E 102°24'5212.4
2016-May-28 10:21N 02°20' E 101°43'911.8
2016-May-28 09:33N 02°26' E 101°36'  

Dump ship's entire track history